sensor_id;sensor_type;location;lat;lon;timestamp;pressure;altitude;pressure_sealevel;temperature;humidity
65280;BME280;51878;55.748;48.742;2023-02-18T00:01:29;99057.03;;;-11.21;95.16
65280;BME280;51878;55.748;48.742;2023-02-18T00:03:58;99078.63;;;-11.16;95.94
65280;BME280;51878;55.748;48.742;2023-02-18T00:06:28;98984.50;;;-11.62;96.33
65280;BME280;51878;55.748;48.742;2023-02-18T00:08:56;98974.06;;;-11.62;96.85
65280;BME280;51878;55.748;48.742;2023-02-18T00:11:24;98975.44;;;-11.97;97.65
65280;BME280;51878;55.748;48.742;2023-02-18T00:13:56;98972.34;;;-11.85;98.42
65280;BME280;51878;55.748;48.742;2023-02-18T00:16:24;99050.38;;;-11.52;98.74
65280;BME280;51878;55.748;48.742;2023-02-18T00:18:56;99006.91;;;-12.00;98.46
65280;BME280;51878;55.748;48.742;2023-02-18T00:21:24;99047.94;;;-11.57;98.14
65280;BME280;51878;55.748;48.742;2023-02-18T00:23:52;99017.38;;;-11.78;97.93
65280;BME280;51878;55.748;48.742;2023-02-18T00:26:19;98968.75;;;-12.04;98.79
65280;BME280;51878;55.748;48.742;2023-02-18T00:28:47;99035.09;;;-11.63;97.95
65280;BME280;51878;55.748;48.742;2023-02-18T00:31:18;99017.47;;;-11.58;98.33
65280;BME280;51878;55.748;48.742;2023-02-18T00:33:45;99017.28;;;-11.53;98.95
65280;BME280;51878;55.748;48.742;2023-02-18T00:36:15;98938.38;;;-12.07;98.47
65280;BME280;51878;55.748;48.742;2023-02-18T00:38:51;99001.69;;;-11.55;99.44
65280;BME280;51878;55.748;48.742;2023-02-18T00:41:19;98933.31;;;-12.12;99.57
65280;BME280;51878;55.748;48.742;2023-02-18T00:43:47;99024.81;;;-11.68;99.23
65280;BME280;51878;55.748;48.742;2023-02-18T00:46:15;99003.22;;;-11.73;98.44
65280;BME280;51878;55.748;48.742;2023-02-18T00:48:42;98956.03;;;-11.90;99.28
65280;BME280;51878;55.748;48.742;2023-02-18T00:51:10;98954.22;;;-11.88;98.73
65280;BME280;51878;55.748;48.742;2023-02-18T00:53:37;98998.31;;;-11.58;98.11
65280;BME280;51878;55.748;48.742;2023-02-18T00:56:05;99004.03;;;-11.49;97.44
65280;BME280;51878;55.748;48.742;2023-02-18T00:58:34;98994.63;;;-11.53;97.30
65280;BME280;51878;55.748;48.742;2023-02-18T01:01:02;98913.00;;;-12.03;95.47
65280;BME280;51878;55.748;48.742;2023-02-18T01:03:32;98902.16;;;-12.16;96.20
65280;BME280;51878;55.748;48.742;2023-02-18T01:06:00;98954.63;;;-11.77;95.86
65280;BME280;51878;55.748;48.742;2023-02-18T01:08:27;98968.09;;;-11.66;95.95
65280;BME280;51878;55.748;48.742;2023-02-18T01:10:56;98870.13;;;-12.21;95.37
65280;BME280;51878;55.748;48.742;2023-02-18T01:13:25;98948.88;;;-11.87;95.41
65280;BME280;51878;55.748;48.742;2023-02-18T01:15:52;98981.09;;;-11.64;95.21
65280;BME280;51878;55.748;48.742;2023-02-18T01:18:20;98943.38;;;-11.79;95.66
65280;BME280;51878;55.748;48.742;2023-02-18T01:20:48;98965.50;;;-11.66;96.51
65280;BME280;51878;55.748;48.742;2023-02-18T01:23:15;98865.97;;;-12.25;96.29
65280;BME280;51878;55.748;48.742;2023-02-18T01:25:43;98956.69;;;-11.63;95.81
65280;BME280;51878;55.748;48.742;2023-02-18T01:28:11;98840.97;;;-12.33;94.85
65280;BME280;51878;55.748;48.742;2023-02-18T01:30:39;98948.47;;;-11.76;95.41
65280;BME280;51878;55.748;48.742;2023-02-18T01:33:06;98809.75;;;-12.58;95.45
65280;BME280;51878;55.748;48.742;2023-02-18T01:35:37;98884.78;;;-12.17;96.27
65280;BME280;51878;55.748;48.742;2023-02-18T01:38:05;98944.44;;;-11.85;95.45
65280;BME280;51878;55.748;48.742;2023-02-18T01:40:32;98921.97;;;-11.89;94.36
65280;BME280;51878;55.748;48.742;2023-02-18T01:42:59;98842.31;;;-12.44;94.27
65280;BME280;51878;55.748;48.742;2023-02-18T01:48:02;98936.56;;;-11.83;94.53
65280;BME280;51878;55.748;48.742;2023-02-18T01:50:32;98952.53;;;-11.91;94.02
65280;BME280;51878;55.748;48.742;2023-02-18T01:53:01;98937.97;;;-11.96;93.05
65280;BME280;51878;55.748;48.742;2023-02-18T01:55:28;98955.09;;;-11.89;93.45
65280;BME280;51878;55.748;48.742;2023-02-18T01:57:55;98957.66;;;-11.88;93.99
65280;BME280;51878;55.748;48.742;2023-02-18T02:00:23;98953.25;;;-11.87;93.94
65280;BME280;51878;55.748;48.742;2023-02-18T02:02:51;98852.69;;;-12.43;93.22
65280;BME280;51878;55.748;48.742;2023-02-18T02:05:20;98950.41;;;-11.81;93.48
65280;BME280;51878;55.748;48.742;2023-02-18T02:07:50;98857.78;;;-12.40;93.19
65280;BME280;51878;55.748;48.742;2023-02-18T02:10:18;98952.28;;;-11.85;93.23
65280;BME280;51878;55.748;48.742;2023-02-18T02:13:11;98950.00;;;-11.92;93.70
65280;BME280;51878;55.748;48.742;2023-02-18T02:16:05;98948.28;;;-11.93;93.42
65280;BME280;51878;55.748;48.742;2023-02-18T02:18:57;98944.88;;;-11.95;92.76
65280;BME280;51878;55.748;48.742;2023-02-18T02:27:33;98791.34;;;-13.00;93.69
65280;BME280;51878;55.748;48.742;2023-02-18T02:30:35;98718.97;;;-13.64;93.71
65280;BME280;51878;55.748;48.742;2023-02-18T02:33:47;98957.06;;;-12.18;94.51
65280;BME280;51878;55.748;48.742;2023-02-18T02:36:38;98956.00;;;-12.12;95.11
65280;BME280;51878;55.748;48.742;2023-02-18T02:39:25;98883.63;;;-12.56;94.83
65280;BME280;51878;55.748;48.742;2023-02-18T02:42:02;98952.31;;;-12.08;95.22
65280;BME280;51878;55.748;48.742;2023-02-18T02:44:48;98924.78;;;-12.17;95.21
65280;BME280;51878;55.748;48.742;2023-02-18T02:50:29;98951.03;;;-12.20;92.73
65280;BME280;51878;55.748;48.742;2023-02-18T02:53:04;98927.53;;;-12.43;91.81
65280;BME280;51878;55.748;48.742;2023-02-18T02:55:33;98951.66;;;-12.37;92.26
65280;BME280;51878;55.748;48.742;2023-02-18T02:58:00;98947.31;;;-12.36;92.99
65280;BME280;51878;55.748;48.742;2023-02-18T03:03:30;98849.53;;;-12.98;93.99
65280;BME280;51878;55.748;48.742;2023-02-18T03:09:15;98940.38;;;-12.37;94.51
65280;BME280;51878;55.748;48.742;2023-02-18T03:17:34;98917.34;;;-12.50;93.25
65280;BME280;51878;55.748;48.742;2023-02-18T03:20:08;98835.91;;;-12.83;93.06
65280;BME280;51878;55.748;48.742;2023-02-18T03:22:43;98914.72;;;-12.50;93.88
65280;BME280;51878;55.748;48.742;2023-02-18T03:25:13;98905.50;;;-12.60;93.53
65280;BME280;51878;55.748;48.742;2023-02-18T03:27:57;98925.00;;;-12.45;93.19
65280;BME280;51878;55.748;48.742;2023-02-18T03:30:32;98900.94;;;-12.53;92.55
65280;BME280;51878;55.748;48.742;2023-02-18T03:33:03;98926.63;;;-12.42;93.15
65280;BME280;51878;55.748;48.742;2023-02-18T03:35:31;98850.06;;;-12.90;92.71
65280;BME280;51878;55.748;48.742;2023-02-18T03:38:12;98922.66;;;-12.53;92.10
65280;BME280;51878;55.748;48.742;2023-02-18T03:40:41;98882.72;;;-12.78;93.12
65280;BME280;51878;55.748;48.742;2023-02-18T03:43:08;98878.03;;;-12.94;93.21
65280;BME280;51878;55.748;48.742;2023-02-18T03:45:35;98933.00;;;-12.75;94.38
65280;BME280;51878;55.748;48.742;2023-02-18T03:48:03;98899.25;;;-12.79;94.07
65280;BME280;51878;55.748;48.742;2023-02-18T03:50:30;98903.50;;;-12.77;93.14
65280;BME280;51878;55.748;48.742;2023-02-18T03:52:57;98922.03;;;-12.59;92.97
65280;BME280;51878;55.748;48.742;2023-02-18T03:55:24;98867.78;;;-12.98;91.17
65280;BME280;51878;55.748;48.742;2023-02-18T03:57:50;98941.03;;;-12.56;91.29
65280;BME280;51878;55.748;48.742;2023-02-18T04:00:18;98924.53;;;-12.56;91.58
65280;BME280;51878;55.748;48.742;2023-02-18T04:02:45;98924.03;;;-12.68;91.95
65280;BME280;51878;55.748;48.742;2023-02-18T04:05:12;98912.88;;;-12.71;91.77
65280;BME280;51878;55.748;48.742;2023-02-18T04:07:39;98891.44;;;-12.79;91.90
65280;BME280;51878;55.748;48.742;2023-02-18T04:10:07;98743.13;;;-13.86;91.74
65280;BME280;51878;55.748;48.742;2023-02-18T04:12:34;98908.72;;;-12.77;93.07
65280;BME280;51878;55.748;48.742;2023-02-18T04:15:03;98799.47;;;-13.58;92.66
65280;BME280;51878;55.748;48.742;2023-02-18T04:17:31;98818.00;;;-13.41;92.33
65280;BME280;51878;55.748;48.742;2023-02-18T04:19:59;98896.13;;;-12.89;92.20
65280;BME280;51878;55.748;48.742;2023-02-18T04:22:26;98795.63;;;-13.46;92.71
65280;BME280;51878;55.748;48.742;2023-02-18T04:24:53;98812.94;;;-13.20;91.17
65280;BME280;51878;55.748;48.742;2023-02-18T04:27:20;98862.13;;;-13.11;91.60
65280;BME280;51878;55.748;48.742;2023-02-18T04:29:47;98769.56;;;-13.46;92.03
65280;BME280;51878;55.748;48.742;2023-02-18T04:32:14;98848.19;;;-13.10;91.99
65280;BME280;51878;55.748;48.742;2023-02-18T04:34:41;98915.88;;;-12.82;91.06
65280;BME280;51878;55.748;48.742;2023-02-18T04:37:08;98902.19;;;-12.88;91.88
65280;BME280;51878;55.748;48.742;2023-02-18T04:39:35;98805.94;;;-13.20;91.42
65280;BME280;51878;55.748;48.742;2023-02-18T04:42:02;98892.88;;;-12.47;90.57
65280;BME280;51878;55.748;48.742;2023-02-18T04:44:36;98910.78;;;-12.38;90.37
65280;BME280;51878;55.748;48.742;2023-02-18T04:47:04;98908.22;;;-12.39;90.78
65280;BME280;51878;55.748;48.742;2023-02-18T04:49:32;98910.78;;;-12.38;89.78
65280;BME280;51878;55.748;48.742;2023-02-18T04:51:59;98883.66;;;-12.34;89.25
65280;BME280;51878;55.748;48.742;2023-02-18T04:54:26;98906.22;;;-12.09;89.37
65280;BME280;51878;55.748;48.742;2023-02-18T04:56:53;98859.59;;;-12.42;88.46
65280;BME280;51878;55.748;48.742;2023-02-18T04:59:20;98880.78;;;-12.04;88.12
65280;BME280;51878;55.748;48.742;2023-02-18T05:01:47;98905.50;;;-11.91;87.68
65280;BME280;51878;55.748;48.742;2023-02-18T05:04:14;98806.59;;;-12.44;88.40
65280;BME280;51878;55.748;48.742;2023-02-18T05:06:43;98889.13;;;-11.74;88.27
65280;BME280;51878;55.748;48.742;2023-02-18T05:09:10;98892.97;;;-11.82;87.82
65280;BME280;51878;55.748;48.742;2023-02-18T05:11:37;98873.31;;;-11.71;86.94
65280;BME280;51878;55.748;48.742;2023-02-18T05:14:04;98808.56;;;-12.05;88.07
65280;BME280;51878;55.748;48.742;2023-02-18T05:16:33;98881.28;;;-11.52;88.27
65280;BME280;51878;55.748;48.742;2023-02-18T05:19:01;98858.34;;;-11.45;88.22
65280;BME280;51878;55.748;48.742;2023-02-18T05:21:28;98817.16;;;-11.40;86.71
65280;BME280;51878;55.748;48.742;2023-02-18T05:23:55;98795.28;;;-11.37;86.34
65280;BME280;51878;55.748;48.742;2023-02-18T05:26:22;98884.56;;;-10.65;85.31
65280;BME280;51878;55.748;48.742;2023-02-18T05:28:49;98827.19;;;-10.90;85.05
65280;BME280;51878;55.748;48.742;2023-02-18T05:31:16;98881.25;;;-10.30;84.17
65280;BME280;51878;55.748;48.742;2023-02-18T05:33:43;98676.63;;;-11.55;82.72
65280;BME280;51878;55.748;48.742;2023-02-18T05:36:10;98852.69;;;-9.81;83.37
65280;BME280;51878;55.748;48.742;2023-02-18T05:38:37;98866.38;;;-9.57;80.82
65280;BME280;51878;55.748;48.742;2023-02-18T05:41:04;98787.53;;;-9.37;79.47
65280;BME280;51878;55.748;48.742;2023-02-18T05:43:31;98838.38;;;-9.22;79.44
65280;BME280;51878;55.748;48.742;2023-02-18T05:46:18;98825.66;;;-8.79;77.02
65280;BME280;51878;55.748;48.742;2023-02-18T05:48:45;98728.56;;;-9.29;77.19
65280;BME280;51878;55.748;48.742;2023-02-18T05:51:13;98846.50;;;-8.76;74.36
65280;BME280;51878;55.748;48.742;2023-02-18T05:53:40;98784.75;;;-8.19;75.92
65280;BME280;51878;55.748;48.742;2023-02-18T05:56:08;98850.34;;;-7.54;73.69
65280;BME280;51878;55.748;48.742;2023-02-18T05:58:35;98791.84;;;-7.74;72.40
65280;BME280;51878;55.748;48.742;2023-02-18T06:01:02;98751.28;;;-7.85;70.42
65280;BME280;51878;55.748;48.742;2023-02-18T06:03:30;98726.19;;;-7.91;70.49
65280;BME280;51878;55.748;48.742;2023-02-18T06:05:57;98842.06;;;-6.73;68.70
65280;BME280;51878;55.748;48.742;2023-02-18T06:08:24;98835.63;;;-5.30;66.12
65280;BME280;51878;55.748;48.742;2023-02-18T06:10:51;98748.19;;;-5.66;64.12
65280;BME280;51878;55.748;48.742;2023-02-18T06:13:18;98836.69;;;-4.18;61.67
65280;BME280;51878;55.748;48.742;2023-02-18T06:15:45;98774.97;;;-4.55;59.36
65280;BME280;51878;55.748;48.742;2023-02-18T06:18:12;98780.91;;;-3.42;55.99
65280;BME280;51878;55.748;48.742;2023-02-18T06:20:39;98748.81;;;-2.02;54.21
65280;BME280;51878;55.748;48.742;2023-02-18T06:23:06;98802.78;;;-2.24;55.15
65280;BME280;51878;55.748;48.742;2023-02-18T06:25:35;98761.78;;;-1.44;53.27
65280;BME280;51878;55.748;48.742;2023-02-18T06:28:02;98643.09;;;-1.76;49.87
65280;BME280;51878;55.748;48.742;2023-02-18T06:30:29;98711.84;;;-0.68;50.22
65280;BME280;51878;55.748;48.742;2023-02-18T06:32:56;98847.56;;;0.84;45.67
65280;BME280;51878;55.748;48.742;2023-02-18T06:35:23;98661.25;;;0.50;42.82
65280;BME280;51878;55.748;48.742;2023-02-18T06:37:50;98714.88;;;2.96;39.04
65280;BME280;51878;55.748;48.742;2023-02-18T06:40:17;98811.84;;;3.08;39.40
65280;BME280;51878;55.748;48.742;2023-02-18T06:42:44;98808.78;;;3.21;37.97
65280;BME280;51878;55.748;48.742;2023-02-18T06:45:11;98804.31;;;2.22;40.76
65280;BME280;51878;55.748;48.742;2023-02-18T06:47:38;98790.00;;;4.07;37.45
65280;BME280;51878;55.748;48.742;2023-02-18T06:50:06;98771.53;;;2.38;36.94
65280;BME280;51878;55.748;48.742;2023-02-18T06:52:33;98706.69;;;2.54;38.22
65280;BME280;51878;55.748;48.742;2023-02-18T06:55:00;98788.00;;;1.60;40.78
65280;BME280;51878;55.748;48.742;2023-02-18T06:57:28;98752.22;;;1.98;38.64
65280;BME280;51878;55.748;48.742;2023-02-18T06:59:55;98822.16;;;2.03;38.88
65280;BME280;51878;55.748;48.742;2023-02-18T07:02:22;98713.72;;;0.79;39.24
65280;BME280;51878;55.748;48.742;2023-02-18T07:04:49;98782.63;;;1.03;40.67
65280;BME280;51878;55.748;48.742;2023-02-18T07:07:16;98775.78;;;0.91;40.74
65280;BME280;51878;55.748;48.742;2023-02-18T07:09:43;98808.25;;;0.86;40.15
65280;BME280;51878;55.748;48.742;2023-02-18T07:12:11;98811.28;;;0.81;41.00
65280;BME280;51878;55.748;48.742;2023-02-18T07:14:59;98820.00;;;0.45;42.75
65280;BME280;51878;55.748;48.742;2023-02-18T07:17:26;98816.16;;;-0.74;42.90
65280;BME280;51878;55.748;48.742;2023-02-18T07:19:54;98804.84;;;-0.46;43.27
65280;BME280;51878;55.748;48.742;2023-02-18T07:22:22;98813.78;;;-0.47;43.28
65280;BME280;51878;55.748;48.742;2023-02-18T07:24:52;98686.88;;;-2.03;45.11
65280;BME280;51878;55.748;48.742;2023-02-18T07:27:20;98806.53;;;-1.29;45.58
65280;BME280;51878;55.748;48.742;2023-02-18T07:29:48;98752.88;;;-1.87;45.84
65280;BME280;51878;55.748;48.742;2023-02-18T07:32:17;98810.91;;;-1.28;44.61
65280;BME280;51878;55.748;48.742;2023-02-18T07:34:45;98625.91;;;-3.03;45.44
65280;BME280;51878;55.748;48.742;2023-02-18T07:37:12;98606.03;;;-3.31;46.19
65280;BME280;51878;55.748;48.742;2023-02-18T07:39:40;98802.22;;;-1.73;44.96
65280;BME280;51878;55.748;48.742;2023-02-18T07:42:09;98684.84;;;-2.11;45.73
65280;BME280;51878;55.748;48.742;2023-02-18T07:44:38;98787.84;;;-1.38;44.41
65280;BME280;51878;55.748;48.742;2023-02-18T07:47:06;98771.47;;;-1.22;46.25
65280;BME280;51878;55.748;48.742;2023-02-18T07:49:34;98714.03;;;-1.04;44.24
65280;BME280;51878;55.748;48.742;2023-02-18T07:52:01;98782.22;;;0.30;42.86
65280;BME280;51878;55.748;48.742;2023-02-18T07:54:30;98783.31;;;-0.33;42.21
65280;BME280;51878;55.748;48.742;2023-02-18T07:56:59;98742.72;;;-1.29;44.20
65280;BME280;51878;55.748;48.742;2023-02-18T07:59:30;98816.81;;;-0.61;44.12
65280;BME280;51878;55.748;48.742;2023-02-18T08:01:57;98735.16;;;-0.10;41.46
65280;BME280;51878;55.748;48.742;2023-02-18T08:04:24;98755.84;;;0.36;42.39
65280;BME280;51878;55.748;48.742;2023-02-18T08:06:54;98783.53;;;-0.05;42.27
65280;BME280;51878;55.748;48.742;2023-02-18T08:09:21;98670.06;;;-1.08;42.55
65280;BME280;51878;55.748;48.742;2023-02-18T08:11:49;98783.31;;;-0.64;45.07
65280;BME280;51878;55.748;48.742;2023-02-18T08:14:16;98734.94;;;-1.20;44.84
65280;BME280;51878;55.748;48.742;2023-02-18T08:16:43;98728.97;;;-0.61;43.94
65280;BME280;51878;55.748;48.742;2023-02-18T08:19:11;98771.19;;;-1.19;44.48
65280;BME280;51878;55.748;48.742;2023-02-18T08:21:38;98708.94;;;-0.15;44.05
65280;BME280;51878;55.748;48.742;2023-02-18T08:24:05;98780.38;;;0.30;41.51
65280;BME280;51878;55.748;48.742;2023-02-18T08:26:34;98791.03;;;2.02;40.29
65280;BME280;51878;55.748;48.742;2023-02-18T08:29:01;98737.97;;;2.08;39.33
65280;BME280;51878;55.748;48.742;2023-02-18T08:31:29;98779.63;;;2.28;38.50
65280;BME280;51878;55.748;48.742;2023-02-18T08:33:59;98610.78;;;2.23;37.25
65280;BME280;51878;55.748;48.742;2023-02-18T08:36:27;98700.09;;;3.87;36.10
65280;BME280;51878;55.748;48.742;2023-02-18T08:38:55;98767.47;;;4.43;36.29
65280;BME280;51878;55.748;48.742;2023-02-18T08:41:23;98777.28;;;4.68;33.87
65280;BME280;51878;55.748;48.742;2023-02-18T08:43:50;98722.41;;;4.54;34.72
65280;BME280;51878;55.748;48.742;2023-02-18T08:46:17;98770.06;;;5.26;34.29
65280;BME280;51878;55.748;48.742;2023-02-18T08:48:52;98781.16;;;4.15;34.77
65280;BME280;51878;55.748;48.742;2023-02-18T08:51:22;98722.84;;;3.75;34.10
65280;BME280;51878;55.748;48.742;2023-02-18T08:53:50;98768.16;;;3.94;34.29
65280;BME280;51878;55.748;48.742;2023-02-18T08:56:17;98755.06;;;2.78;35.55
65280;BME280;51878;55.748;48.742;2023-02-18T08:58:44;98720.56;;;1.48;38.28
65280;BME280;51878;55.748;48.742;2023-02-18T09:01:12;98778.09;;;3.41;37.06
65280;BME280;51878;55.748;48.742;2023-02-18T09:03:40;98759.63;;;3.30;36.52
65280;BME280;51878;55.748;48.742;2023-02-18T09:06:07;98751.38;;;3.23;36.21
65280;BME280;51878;55.748;48.742;2023-02-18T09:08:36;98697.13;;;3.21;36.23
65280;BME280;51878;55.748;48.742;2023-02-18T09:11:04;98774.38;;;2.90;36.88
65280;BME280;51878;55.748;48.742;2023-02-18T09:13:32;98788.91;;;2.87;38.09
65280;BME280;51878;55.748;48.742;2023-02-18T09:16:03;98775.72;;;3.90;36.18
65280;BME280;51878;55.748;48.742;2023-02-18T09:18:32;98717.59;;;2.60;38.22
65280;BME280;51878;55.748;48.742;2023-02-18T09:21:02;98756.44;;;1.73;38.80
65280;BME280;51878;55.748;48.742;2023-02-18T09:23:31;98735.66;;;1.30;39.68
65280;BME280;51878;55.748;48.742;2023-02-18T09:25:59;98744.13;;;2.54;37.71
65280;BME280;51878;55.748;48.742;2023-02-18T09:28:26;98750.16;;;2.56;37.95
65280;BME280;51878;55.748;48.742;2023-02-18T09:30:54;98701.81;;;1.85;38.92
65280;BME280;51878;55.748;48.742;2023-02-18T09:33:21;98682.53;;;1.64;38.81
65280;BME280;51878;55.748;48.742;2023-02-18T09:35:49;98685.22;;;1.27;39.19
65280;BME280;51878;55.748;48.742;2023-02-18T09:38:16;98684.56;;;0.58;41.22
65280;BME280;51878;55.748;48.742;2023-02-18T09:40:48;98717.53;;;0.57;42.02
65280;BME280;51878;55.748;48.742;2023-02-18T09:43:30;98735.22;;;0.58;42.24
65280;BME280;51878;55.748;48.742;2023-02-18T09:45:59;98730.47;;;-0.28;45.53
65280;BME280;51878;55.748;48.742;2023-02-18T09:48:31;98668.47;;;-0.90;45.12
65280;BME280;51878;55.748;48.742;2023-02-18T09:50:59;98699.28;;;-0.06;44.67
65280;BME280;51878;55.748;48.742;2023-02-18T09:53:26;98542.22;;;-2.41;46.51
65280;BME280;51878;55.748;48.742;2023-02-18T09:55:56;98674.47;;;0.23;42.66
65280;BME280;51878;55.748;48.742;2023-02-18T09:58:29;98716.38;;;0.01;42.56
65280;BME280;51878;55.748;48.742;2023-02-18T10:01:16;98705.06;;;0.48;42.27
65280;BME280;51878;55.748;48.742;2023-02-18T10:03:47;98646.22;;;-0.38;43.26
65280;BME280;51878;55.748;48.742;2023-02-18T10:06:21;98686.94;;;0.71;41.48
65280;BME280;51878;55.748;48.742;2023-02-18T10:08:51;98720.91;;;0.49;42.54
65280;BME280;51878;55.748;48.742;2023-02-18T10:13:57;98636.56;;;-0.30;43.83
65280;BME280;51878;55.748;48.742;2023-02-18T10:16:27;98718.94;;;0.61;42.92
65280;BME280;51878;55.748;48.742;2023-02-18T10:19:00;98704.13;;;-0.31;43.96
65280;BME280;51878;55.748;48.742;2023-02-18T10:21:32;98696.78;;;0.51;42.41
65280;BME280;51878;55.748;48.742;2023-02-18T10:24:13;98707.16;;;0.54;42.74
65280;BME280;51878;55.748;48.742;2023-02-18T10:26:43;98662.56;;;0.07;41.82
65280;BME280;51878;55.748;48.742;2023-02-18T10:29:18;98710.94;;;0.41;42.54
65280;BME280;51878;55.748;48.742;2023-02-18T10:32:23;98714.41;;;0.81;41.91
65280;BME280;51878;55.748;48.742;2023-02-18T10:35:14;98711.63;;;0.82;41.16
65280;BME280;51878;55.748;48.742;2023-02-18T10:40:41;98715.50;;;1.45;41.16
65280;BME280;51878;55.748;48.742;2023-02-18T10:51:32;98513.50;;;-0.04;40.76
65280;BME280;51878;55.748;48.742;2023-02-18T10:54:00;98691.34;;;1.74;40.43
65280;BME280;51878;55.748;48.742;2023-02-18T10:59:12;98641.63;;;0.98;40.13
65280;BME280;51878;55.748;48.742;2023-02-18T11:01:41;98634.38;;;0.91;39.14
65280;BME280;51878;55.748;48.742;2023-02-18T11:04:15;98584.13;;;0.29;40.83
65280;BME280;51878;55.748;48.742;2023-02-18T11:06:46;98641.38;;;1.57;39.42
65280;BME280;51878;55.748;48.742;2023-02-18T11:09:38;98666.13;;;1.59;40.43
65280;BME280;51878;55.748;48.742;2023-02-18T11:12:14;98618.28;;;0.73;40.56
65280;BME280;51878;55.748;48.742;2023-02-18T11:14:48;98598.00;;;1.63;40.10
65280;BME280;51878;55.748;48.742;2023-02-18T11:17:45;98570.41;;;0.99;40.10
65280;BME280;51878;55.748;48.742;2023-02-18T11:20:35;98695.13;;;1.44;37.96
65280;BME280;51878;55.748;48.742;2023-02-18T11:25:35;98587.81;;;-0.30;40.95
65280;BME280;51878;55.748;48.742;2023-02-18T11:30:38;98606.84;;;0.24;39.52
65280;BME280;51878;55.748;48.742;2023-02-18T11:33:34;98682.19;;;1.77;40.17
65280;BME280;51878;55.748;48.742;2023-02-18T11:36:22;98688.84;;;0.88;42.08
65280;BME280;51878;55.748;48.742;2023-02-18T11:38:59;98684.25;;;1.55;40.59
65280;BME280;51878;55.748;48.742;2023-02-18T11:41:37;98694.50;;;0.66;41.07
65280;BME280;51878;55.748;48.742;2023-02-18T11:44:38;98689.16;;;0.66;40.57
65280;BME280;51878;55.748;48.742;2023-02-18T11:49:42;98580.88;;;-3.37;46.54
65280;BME280;51878;55.748;48.742;2023-02-18T11:52:32;98708.16;;;-4.09;50.34
65280;BME280;51878;55.748;48.742;2023-02-18T11:55:19;98703.50;;;-3.35;50.94
65280;BME280;51878;55.748;48.742;2023-02-18T11:58:01;98689.38;;;-5.04;53.58
65280;BME280;51878;55.748;48.742;2023-02-18T12:00:48;98666.22;;;-4.26;53.00
65280;BME280;51878;55.748;48.742;2023-02-18T12:06:14;98690.84;;;-3.78;52.40
65280;BME280;51878;55.748;48.742;2023-02-18T12:08:53;98598.63;;;-5.28;54.75
65280;BME280;51878;55.748;48.742;2023-02-18T12:11:30;98695.59;;;-5.56;57.21
65280;BME280;51878;55.748;48.742;2023-02-18T12:13:59;98662.16;;;-6.21;58.85
65280;BME280;51878;55.748;48.742;2023-02-18T12:16:49;98649.63;;;-6.05;59.64
65280;BME280;51878;55.748;48.742;2023-02-18T12:19:35;98685.41;;;-5.88;60.78
65280;BME280;51878;55.748;48.742;2023-02-18T12:25:35;98691.41;;;-6.11;61.04
65280;BME280;51878;55.748;48.742;2023-02-18T12:42:13;98700.94;;;-5.83;62.10
65280;BME280;51878;55.748;48.742;2023-02-18T12:55:42;98690.38;;;-5.83;62.20
65280;BME280;51878;55.748;48.742;2023-02-18T13:03:58;98700.84;;;-7.33;66.30
65280;BME280;51878;55.748;48.742;2023-02-18T13:11:56;98697.56;;;-8.42;73.46
65280;BME280;51878;55.748;48.742;2023-02-18T13:14:29;98662.06;;;-8.81;74.79
65280;BME280;51878;55.748;48.742;2023-02-18T13:16:59;98586.69;;;-9.42;75.41
65280;BME280;51878;55.748;48.742;2023-02-18T13:19:42;98655.81;;;-8.78;75.78
65280;BME280;51878;55.748;48.742;2023-02-18T13:22:11;98600.44;;;-9.21;76.42
65280;BME280;51878;55.748;48.742;2023-02-18T13:24:44;98612.16;;;-9.28;76.60
65280;BME280;51878;55.748;48.742;2023-02-18T13:27:47;98683.47;;;-9.04;77.33
65280;BME280;51878;55.748;48.742;2023-02-18T13:40:44;98609.84;;;-10.17;81.04
65280;BME280;51878;55.748;48.742;2023-02-18T13:43:18;98440.72;;;-11.24;81.42
65280;BME280;51878;55.748;48.742;2023-02-18T13:46:14;98689.34;;;-9.83;82.10
65280;BME280;51878;55.748;48.742;2023-02-18T13:51:43;98689.91;;;-10.11;83.18
65280;BME280;51878;55.748;48.742;2023-02-18T13:56:42;98667.56;;;-10.53;84.21
65280;BME280;51878;55.748;48.742;2023-02-18T13:59:32;98594.44;;;-11.12;85.22
65280;BME280;51878;55.748;48.742;2023-02-18T14:02:29;98667.88;;;-10.78;85.79
65280;BME280;51878;55.748;48.742;2023-02-18T14:05:19;98599.59;;;-11.29;86.33
65280;BME280;51878;55.748;48.742;2023-02-18T14:10:34;98633.25;;;-11.03;87.27
65280;BME280;51878;55.748;48.742;2023-02-18T14:13:37;98678.63;;;-10.85;86.98
65280;BME280;51878;55.748;48.742;2023-02-18T14:16:07;98650.16;;;-11.10;88.63
65280;BME280;51878;55.748;48.742;2023-02-18T14:28:42;98682.38;;;-11.47;90.40
65280;BME280;51878;55.748;48.742;2023-02-18T14:50:19;98525.72;;;-12.69;92.62
65280;BME280;51878;55.748;48.742;2023-02-18T14:53:03;98618.59;;;-12.22;92.62
65280;BME280;51878;55.748;48.742;2023-02-18T14:55:34;98679.38;;;-12.18;91.83
65280;BME280;51878;55.748;48.742;2023-02-18T14:58:35;98566.56;;;-13.10;93.44
65280;BME280;51878;55.748;48.742;2023-02-18T15:01:16;98617.72;;;-12.85;94.95
65280;BME280;51878;55.748;48.742;2023-02-18T15:03:47;98672.56;;;-12.43;95.87
65280;BME280;51878;55.748;48.742;2023-02-18T15:08:56;98679.56;;;-12.02;94.45
65280;BME280;51878;55.748;48.742;2023-02-18T15:11:36;98677.13;;;-11.87;94.31
65280;BME280;51878;55.748;48.742;2023-02-18T15:14:10;98672.97;;;-11.91;94.25
65280;BME280;51878;55.748;48.742;2023-02-18T15:16:41;98679.19;;;-11.93;93.97
65280;BME280;51878;55.748;48.742;2023-02-18T15:19:18;98678.63;;;-11.81;94.61
65280;BME280;51878;55.748;48.742;2023-02-18T15:21:48;98435.66;;;-13.18;94.68
65280;BME280;51878;55.748;48.742;2023-02-18T15:24:52;98648.69;;;-11.74;94.10
65280;BME280;51878;55.748;48.742;2023-02-18T15:27:28;98581.72;;;-12.14;93.62
65280;BME280;51878;55.748;48.742;2023-02-18T15:32:54;98646.28;;;-11.78;93.62
65280;BME280;51878;55.748;48.742;2023-02-18T15:35:24;98606.63;;;-12.07;93.50